Flugplatz Großenhain

Für EDAK sind keine METAR/TAF Berichte vorhanden.
Es werden die Flugwettermeldungen vom Flugplatz Dresden in 24 km Entfernung angezeigt.

Bericht für EDDC

vom 07.03. um 02:50 UTC

Wind 4 kt aus 250°

Sichtweite 10 km oder mehr

aufgebrochene Bewölkung in 4000 ft

Temperatur 1.0°C

Taupunkt -3.0°C

Luftfeuchtigkeit 75%

Luftdruck 1025 hPa

EDDC 070250Z 25004KT 210V300 9999 BKN040 01/M03 Q1025

Prognose für EDDC

vom 06.03. um 23:00 UTC

Zwischen 00:00 UTC und 07:00 UTC

Wind 5 kt aus 230°

Sichtweite 10 km oder mehr

aufgebrochene Bewölkung in 4500 ft


Zwischen 07:00 und 09:00 UTC übergehend zu

Wind 8 kt aus 290°

Sichtweite 10 km oder mehr

aufgebrochene Bewölkung in 4500 ft

TAF EDDC 062300Z 0700/0724 23005KT 9999 BKN045 BECMG 0707/0709 29008KT
Impressum